createdAt,value
2022-11-19T00:01:38.115Z,71.81
2022-11-19T00:04:09.986Z,71.36
2022-11-19T00:06:37.040Z,71.59
2022-11-19T00:09:11.119Z,71.88
2022-11-19T00:11:57.207Z,72.63
2022-11-19T00:14:24.799Z,72.12
2022-11-19T00:16:54.088Z,72.20
2022-11-19T00:19:24.093Z,72.51
2022-11-19T00:21:51.122Z,73.72
2022-11-19T00:24:18.482Z,72.34
2022-11-19T00:26:45.667Z,72.65
2022-11-19T00:29:17.837Z,73.52
2022-11-19T00:31:47.767Z,72.73
2022-11-19T00:34:14.893Z,72.46
2022-11-19T00:36:41.911Z,71.73
2022-11-19T00:39:08.944Z,72.05
2022-11-19T00:41:35.947Z,73.06
2022-11-19T00:44:03.024Z,73.90
2022-11-19T00:46:36.353Z,72.73
2022-11-19T00:49:03.499Z,72.25
2022-11-19T00:51:31.483Z,72.11
2022-11-19T00:53:58.977Z,71.34
2022-11-19T00:56:28.063Z,71.38
2022-11-19T00:58:57.844Z,70.89
2022-11-19T01:01:26.128Z,71.98
2022-11-19T01:03:53.973Z,71.47
2022-11-19T01:06:25.004Z,71.10
2022-11-19T01:08:53.848Z,71.54
2022-11-19T01:11:30.381Z,71.12
2022-11-19T01:13:59.253Z,70.34
2022-11-19T01:16:36.798Z,70.11
2022-11-19T01:19:06.559Z,69.45
2022-11-19T01:21:38.701Z,70.87
2022-11-19T01:24:06.131Z,70.49
2022-11-19T01:26:35.654Z,70.36
2022-11-19T01:29:03.365Z,71.19
2022-11-19T01:31:31.054Z,71.92
2022-11-19T01:33:59.262Z,71.26
2022-11-19T01:36:27.280Z,71.20
2022-11-19T01:38:55.199Z,71.39
2022-11-19T01:41:31.424Z,71.06
2022-11-19T01:44:26.678Z,71.07
2022-11-19T01:46:53.826Z,71.23
2022-11-19T01:49:21.648Z,72.20
2022-11-19T01:51:57.925Z,73.59
2022-11-19T01:54:41.241Z,72.80
2022-11-19T01:57:32.013Z,72.36
2022-11-19T02:00:01.482Z,72.63
2022-11-19T02:02:32.139Z,72.84
2022-11-19T02:05:01.840Z,73.37
2022-11-19T02:07:33.889Z,74.41
2022-11-19T02:10:05.033Z,75.48
2022-11-19T02:13:03.271Z,74.59
2022-11-19T02:15:49.271Z,73.53
2022-11-19T02:18:31.218Z,73.59
2022-11-19T02:21:23.195Z,74.11
2022-11-19T02:24:18.222Z,74.27
2022-11-19T02:27:07.391Z,75.01
2022-11-19T02:29:53.401Z,75.54
2022-11-19T02:32:38.469Z,75.33
2022-11-19T02:35:17.426Z,74.75
2022-11-19T02:38:12.126Z,75.53
2022-11-19T02:40:47.055Z,75.05
2022-11-19T02:43:25.504Z,74.03
2022-11-19T02:46:15.312Z,73.45
2022-11-19T02:48:53.820Z,72.78
2022-11-19T02:51:21.312Z,72.63
2022-11-19T02:53:48.806Z,73.16
2022-11-19T02:56:51.893Z,72.82
2022-11-19T03:00:01.965Z,71.91
2022-11-19T03:02:57.832Z,71.72
2022-11-19T03:05:30.789Z,71.85
2022-11-19T03:07:58.412Z,71.33
2022-11-19T03:10:51.724Z,72.25
2022-11-19T03:13:46.573Z,71.89
2022-11-19T03:16:45.132Z,71.63
2022-11-19T03:19:42.916Z,72.43
2022-11-19T03:22:22.144Z,72.44
2022-11-19T03:25:21.436Z,72.03
2022-11-19T03:27:54.661Z,72.00
2022-11-19T03:30:21.768Z,70.71
2022-11-19T03:33:12.499Z,72.01
2022-11-19T03:36:14.529Z,71.92
2022-11-19T03:38:47.866Z,71.90
2022-11-19T03:41:18.352Z,72.44
2022-11-19T03:43:54.123Z,71.48
2022-11-19T03:46:23.542Z,72.19
2022-11-19T03:48:54.430Z,71.50
2022-11-19T03:51:53.379Z,72.01
2022-11-19T03:54:20.737Z,71.42
2022-11-19T03:56:49.929Z,71.95
2022-11-19T03:59:19.974Z,71.79
2022-11-19T04:01:52.620Z,71.95
2022-11-19T04:04:38.236Z,72.33
2022-11-19T04:07:08.009Z,71.55
2022-11-19T04:09:39.086Z,70.99
2022-11-19T04:12:26.328Z,70.41
2022-11-19T04:14:53.649Z,71.23
2022-11-19T04:17:21.081Z,70.38
2022-11-19T04:19:48.365Z,70.09
2022-11-19T04:22:15.518Z,71.35
2022-11-19T04:24:42.515Z,70.96
2022-11-19T04:27:09.781Z,70.54
2022-11-19T04:29:36.844Z,71.52
2022-11-19T04:32:04.176Z,70.87
2022-11-19T04:34:31.248Z,71.27
2022-11-19T04:36:58.322Z,72.02
2022-11-19T04:39:25.320Z,71.50
2022-11-19T04:41:52.473Z,70.35
2022-11-19T04:44:19.512Z,70.86
2022-11-19T04:46:46.625Z,70.55
2022-11-19T04:49:13.763Z,70.86
2022-11-19T04:51:42.252Z,70.61
2022-11-19T04:54:09.754Z,71.79
2022-11-19T04:56:37.595Z,70.78
2022-11-19T04:59:05.233Z,73.64
2022-11-19T05:01:34.960Z,73.40
2022-11-19T05:04:02.143Z,75.03
2022-11-19T05:06:29.179Z,75.36
2022-11-19T05:08:56.247Z,75.97
2022-11-19T05:11:23.250Z,74.84
2022-11-19T05:13:50.288Z,73.45
2022-11-19T05:16:17.527Z,75.26
2022-11-19T05:18:45.691Z,74.07
2022-11-19T05:21:15.220Z,74.22
2022-11-19T05:23:46.165Z,74.13
2022-11-19T05:26:13.217Z,75.21
2022-11-19T05:28:40.386Z,77.13
2022-11-19T05:31:10.073Z,76.18
2022-11-19T05:33:37.183Z,77.31
2022-11-19T05:36:04.837Z,75.64
2022-11-19T05:38:31.854Z,75.52
2022-11-19T05:40:59.075Z,75.84
2022-11-19T05:43:26.125Z,74.81
2022-11-19T05:45:53.139Z,74.29
2022-11-19T05:48:20.169Z,74.06
2022-11-19T05:50:47.407Z,74.53
2022-11-19T05:53:14.449Z,75.43
2022-11-19T05:55:41.475Z,75.25
2022-11-19T05:58:08.615Z,74.92
2022-11-19T06:00:35.984Z,73.20
2022-11-19T06:03:04.163Z,72.77
2022-11-19T06:05:34.731Z,72.48
2022-11-19T06:08:08.709Z,72.56
2022-11-19T06:10:35.789Z,71.90
2022-11-19T06:13:03.528Z,71.44
2022-11-19T06:15:30.631Z,71.64
2022-11-19T06:17:57.969Z,72.93
2022-11-19T06:20:25.025Z,72.84
2022-11-19T06:22:52.453Z,71.58
2022-11-19T06:25:20.358Z,71.79
2022-11-19T06:27:50.375Z,70.95
2022-11-19T06:30:17.720Z,72.02
2022-11-19T06:32:44.863Z,73.20
2022-11-19T06:35:14.269Z,73.50
2022-11-19T06:37:44.072Z,72.63
2022-11-19T06:40:12.196Z,71.72
2022-11-19T06:42:39.461Z,71.73
2022-11-19T06:45:13.576Z,72.44
2022-11-19T06:47:49.742Z,72.32
2022-11-19T06:50:18.115Z,72.26
2022-11-19T06:52:45.479Z,73.10
2022-11-19T06:55:13.541Z,72.42
2022-11-19T06:57:42.945Z,71.83
2022-11-19T07:00:11.181Z,70.74
2022-11-19T07:02:38.185Z,71.24
2022-11-19T07:05:06.191Z,71.87
2022-11-19T07:07:36.260Z,71.50
2022-11-19T07:10:06.061Z,70.79
2022-11-19T07:12:33.124Z,70.09
2022-11-19T07:15:04.226Z,70.14
2022-11-19T07:17:32.257Z,69.93
2022-11-19T07:19:59.625Z,70.10
2022-11-19T07:22:29.158Z,70.69
2022-11-19T07:24:56.345Z,69.95
2022-11-19T07:27:23.652Z,69.54
2022-11-19T07:29:53.284Z,70.04
2022-11-19T07:32:20.346Z,69.70
2022-11-19T07:34:50.095Z,71.74
2022-11-19T07:37:18.627Z,70.76
2022-11-19T07:39:47.043Z,71.76
2022-11-19T07:42:33.437Z,70.77
2022-11-19T07:45:00.550Z,70.27
2022-11-19T07:47:27.695Z,71.23
2022-11-19T07:49:57.510Z,69.99
2022-11-19T07:52:24.802Z,70.74
2022-11-19T07:54:51.985Z,71.92
2022-11-19T07:57:24.608Z,72.01
2022-11-19T07:59:54.616Z,69.74
2022-11-19T08:02:21.841Z,69.24
2022-11-19T08:04:48.932Z,70.21
2022-11-19T08:07:16.159Z,69.57
2022-11-19T08:09:43.637Z,70.54
2022-11-19T08:12:10.878Z,70.13
2022-11-19T08:14:38.354Z,71.86
2022-11-19T08:17:24.260Z,72.24
2022-11-19T08:19:51.264Z,71.64
2022-11-19T08:22:20.588Z,71.59
2022-11-19T08:24:47.786Z,71.15
2022-11-19T08:27:15.156Z,71.06
2022-11-19T08:29:42.361Z,72.09
2022-11-19T08:32:09.409Z,71.38
2022-11-19T08:34:36.777Z,72.24
2022-11-19T08:37:03.884Z,72.64
2022-11-19T08:39:32.095Z,71.95
2022-11-19T08:42:18.054Z,71.57
2022-11-19T08:44:45.162Z,72.48
2022-11-19T08:47:12.255Z,72.24
2022-11-19T08:49:39.304Z,72.35
2022-11-19T08:52:07.024Z,71.41
2022-11-19T08:54:34.200Z,71.84
2022-11-19T08:57:01.322Z,71.69
2022-11-19T08:59:30.851Z,71.41
2022-11-19T09:01:57.924Z,69.48
2022-11-19T09:04:24.983Z,70.22
2022-11-19T09:06:54.592Z,69.72
2022-11-19T09:09:21.689Z,69.24
2022-11-19T09:11:48.886Z,68.84
2022-11-19T09:14:20.622Z,70.06
2022-11-19T09:16:48.020Z,70.31
2022-11-19T09:19:15.131Z,70.49
2022-11-19T09:21:42.177Z,69.25
2022-11-19T09:24:09.162Z,69.12
2022-11-19T09:26:36.288Z,68.74
2022-11-19T09:29:03.502Z,68.01
2022-11-19T09:31:30.646Z,67.42
2022-11-19T09:34:00.662Z,68.33
2022-11-19T09:36:27.875Z,69.14
2022-11-19T09:38:58.481Z,69.26
2022-11-19T09:41:55.230Z,69.92
2022-11-19T09:44:31.065Z,70.81
2022-11-19T09:47:09.733Z,71.41
2022-11-19T09:50:16.891Z,71.67
2022-11-19T09:52:56.959Z,71.74
2022-11-19T09:55:34.611Z,74.06
2022-11-19T09:58:07.498Z,73.98
2022-11-19T10:00:34.796Z,74.14
2022-11-19T10:03:13.554Z,73.65
2022-11-19T10:06:15.483Z,75.54
2022-11-19T10:09:03.225Z,75.76
2022-11-19T10:11:45.128Z,75.16
2022-11-19T10:14:21.007Z,75.34
2022-11-19T10:17:12.709Z,75.29
2022-11-19T10:20:30.664Z,75.95
2022-11-19T10:23:25.919Z,75.55
2022-11-19T10:26:05.106Z,73.96
2022-11-19T10:28:38.480Z,75.81
2022-11-19T10:31:38.186Z,74.75
2022-11-19T10:34:31.706Z,73.91
2022-11-19T10:37:15.155Z,75.64
2022-11-19T10:39:55.172Z,75.42
2022-11-19T10:42:38.599Z,76.67
2022-11-19T10:45:27.697Z,77.12
2022-11-19T10:48:09.587Z,77.74
2022-11-19T10:50:39.780Z,77.52
2022-11-19T10:53:38.721Z,78.29
2022-11-19T10:56:20.185Z,78.62
2022-11-19T10:59:12.505Z,78.12
2022-11-19T11:01:44.685Z,79.35
2022-11-19T11:04:28.451Z,79.90
2022-11-19T11:06:57.737Z,80.89
2022-11-19T11:09:40.960Z,80.37
2022-11-19T11:12:44.235Z,81.00
2022-11-19T11:15:18.858Z,80.82
2022-11-19T11:17:47.653Z,80.51
2022-11-19T11:20:20.152Z,80.83
2022-11-19T11:23:03.229Z,80.03
2022-11-19T11:25:32.941Z,80.70
2022-11-19T11:28:18.348Z,80.63
2022-11-19T11:30:59.283Z,80.02
2022-11-19T11:33:36.017Z,81.02
2022-11-19T11:36:16.339Z,81.05
2022-11-19T11:38:49.241Z,80.43
2022-11-19T11:42:03.453Z,80.06
2022-11-19T11:44:17.799Z,79.08
2022-11-19T11:46:54.808Z,79.80
2022-11-19T11:49:46.670Z,79.85
2022-11-19T11:52:52.103Z,80.11
2022-11-19T11:55:25.070Z,80.84
2022-11-19T11:58:05.396Z,81.00
2022-11-19T12:00:46.209Z,82.29
2022-11-19T12:03:21.001Z,81.76
2022-11-19T12:06:15.513Z,82.11
2022-11-19T12:09:01.325Z,82.56
2022-11-19T12:11:55.497Z,83.59
2022-11-19T12:14:42.529Z,83.08
2022-11-19T12:17:43.166Z,84.48
2022-11-19T12:20:40.700Z,83.82
2022-11-19T12:23:38.268Z,83.63
2022-11-19T12:26:45.171Z,82.84
2022-11-19T12:29:39.829Z,82.64
2022-11-19T12:32:16.050Z,85.09
2022-11-19T12:35:00.513Z,85.64
2022-11-19T12:38:01.813Z,86.86
2022-11-19T12:41:10.073Z,85.75
2022-11-19T12:44:00.062Z,83.02
2022-11-19T12:46:50.321Z,84.84
2022-11-19T12:49:43.698Z,84.69
2022-11-19T12:52:54.469Z,83.22
2022-11-19T12:55:35.155Z,83.89
2022-11-19T12:58:52.553Z,84.64
2022-11-19T13:01:26.740Z,83.74
2022-11-19T13:04:37.671Z,83.89
2022-11-19T13:07:45.624Z,84.92
2022-11-19T13:10:16.925Z,85.49
2022-11-19T13:12:50.641Z,84.94
2022-11-19T13:15:58.926Z,85.23
2022-11-19T13:18:32.961Z,84.39
2022-11-19T13:21:28.792Z,85.23
2022-11-19T13:23:56.721Z,85.39
2022-11-19T13:26:32.065Z,85.30
2022-11-19T13:29:25.326Z,85.70
2022-11-19T13:32:01.563Z,86.22
2022-11-19T13:35:00.404Z,85.63
2022-11-19T13:37:58.301Z,85.21
2022-11-19T13:40:40.247Z,85.48
2022-11-19T13:43:33.332Z,85.00
2022-11-19T13:46:20.641Z,85.14
2022-11-19T13:49:26.786Z,84.54
2022-11-19T13:52:00.937Z,85.54
2022-11-19T13:54:35.483Z,84.12
2022-11-19T13:57:04.179Z,84.71
2022-11-19T13:59:47.687Z,84.67
2022-11-19T14:02:46.680Z,84.80
2022-11-19T14:06:12.751Z,85.04
2022-11-19T14:09:21.613Z,85.40
2022-11-19T14:11:57.615Z,86.26
2022-11-19T14:15:17.579Z,85.78
2022-11-19T14:18:35.612Z,86.46
2022-11-19T14:21:43.532Z,85.06
2022-11-19T14:24:44.473Z,90.88
2022-11-19T14:27:21.079Z,92.99
2022-11-19T14:29:48.021Z,88.75
2022-11-19T14:32:14.880Z,88.10
2022-11-19T14:35:08.963Z,88.23
2022-11-19T14:37:48.771Z,87.03
2022-11-19T14:40:21.226Z,86.58
2022-11-19T14:43:18.677Z,87.71
2022-11-19T14:46:08.747Z,87.35
2022-11-19T14:48:41.826Z,86.14
2022-11-19T14:51:29.651Z,86.43
2022-11-19T14:54:13.596Z,86.19
2022-11-19T14:56:46.180Z,85.42
2022-11-19T14:59:16.063Z,85.62
2022-11-19T15:02:25.695Z,86.00
2022-11-19T15:04:55.859Z,86.19
2022-11-19T15:07:33.756Z,85.89
2022-11-19T15:10:10.243Z,85.34
2022-11-19T15:12:43.420Z,84.14
2022-11-19T15:15:22.468Z,83.87
2022-11-19T15:18:41.495Z,84.08
2022-11-19T15:21:48.035Z,84.39
2022-11-19T15:24:48.581Z,85.11
2022-11-19T15:27:45.774Z,84.47
2022-11-19T15:30:16.968Z,84.54
2022-11-19T15:33:08.031Z,84.53
2022-11-19T15:36:04.930Z,85.15
2022-11-19T15:38:40.613Z,85.46
2022-11-19T15:41:14.551Z,84.92
2022-11-19T15:43:51.844Z,84.42
2022-11-19T15:46:42.872Z,83.74
2022-11-19T15:49:25.078Z,85.23
2022-11-19T15:52:16.059Z,84.68
2022-11-19T15:54:45.056Z,83.81
2022-11-19T15:57:26.219Z,84.38
2022-11-19T16:00:01.333Z,83.92
2022-11-19T16:02:41.628Z,84.67
2022-11-19T16:05:18.445Z,85.64
2022-11-19T16:07:48.739Z,85.31
2022-11-19T16:10:37.273Z,84.62
2022-11-19T16:13:42.922Z,85.31
2022-11-19T16:16:40.000Z,85.32
2022-11-19T16:19:07.052Z,83.77
2022-11-19T16:21:40.033Z,84.28
2022-11-19T16:24:31.988Z,83.97
2022-11-19T16:27:02.942Z,84.97
2022-11-19T16:29:42.458Z,86.49
2022-11-19T16:32:17.108Z,85.52
2022-11-19T16:34:44.783Z,84.41
2022-11-19T16:37:13.981Z,85.42
2022-11-19T16:39:43.663Z,85.76
2022-11-19T16:42:18.378Z,84.40
2022-11-19T16:44:53.453Z,83.83
2022-11-19T16:47:35.899Z,83.87
2022-11-19T16:50:27.558Z,85.32
2022-11-19T16:52:59.326Z,85.39
2022-11-19T16:55:26.223Z,84.79
2022-11-19T16:58:00.590Z,86.05
2022-11-19T17:00:38.361Z,85.41
2022-11-19T17:03:29.196Z,84.94
2022-11-19T17:05:58.073Z,84.82
2022-11-19T17:08:34.820Z,84.98
2022-11-19T17:12:00.112Z,84.89
2022-11-19T17:14:36.407Z,85.71
2022-11-19T17:17:04.192Z,85.42
2022-11-19T17:19:38.441Z,85.38
2022-11-19T17:22:21.859Z,86.04
2022-11-19T17:24:51.777Z,85.38
2022-11-19T17:27:54.750Z,85.03
2022-11-19T17:30:32.043Z,85.69
2022-11-19T17:33:04.997Z,86.67
2022-11-19T17:35:42.745Z,86.32
2022-11-19T17:38:31.250Z,85.33
2022-11-19T17:41:01.425Z,86.17
2022-11-19T17:43:55.573Z,85.45
2022-11-19T17:46:25.755Z,85.23
2022-11-19T17:48:56.947Z,84.71
2022-11-19T17:51:26.033Z,84.83
2022-11-19T17:53:56.590Z,84.84
2022-11-19T17:56:30.356Z,85.15
2022-11-19T17:58:59.707Z,84.59
2022-11-19T18:01:27.240Z,84.97
2022-11-19T18:03:54.341Z,84.58
2022-11-19T18:06:23.933Z,84.39
2022-11-19T18:08:54.150Z,84.53
2022-11-19T18:11:25.246Z,83.57
2022-11-19T18:13:59.364Z,85.41
2022-11-19T18:16:34.077Z,84.78
2022-11-19T18:19:01.356Z,85.31
2022-11-19T18:21:28.458Z,85.45
2022-11-19T18:23:55.603Z,84.87
2022-11-19T18:26:23.649Z,83.44
2022-11-19T18:28:52.997Z,83.79
2022-11-19T18:31:26.753Z,84.70
2022-11-19T18:33:56.127Z,83.99
2022-11-19T18:36:25.168Z,84.13
2022-11-19T18:38:53.139Z,84.58
2022-11-19T18:41:20.379Z,85.30
2022-11-19T18:44:08.459Z,84.99
2022-11-19T18:46:37.893Z,83.89
2022-11-19T18:49:04.937Z,83.98
2022-11-19T18:51:32.645Z,83.88
2022-11-19T18:53:59.745Z,83.97
2022-11-19T18:56:26.999Z,83.73
2022-11-19T18:58:54.203Z,85.32
2022-11-19T19:01:24.106Z,84.30
2022-11-19T19:03:52.664Z,85.24
2022-11-19T19:06:23.366Z,85.14
2022-11-19T19:08:50.652Z,84.53
2022-11-19T19:11:36.537Z,83.76
2022-11-19T19:14:06.158Z,84.46
2022-11-19T19:16:35.657Z,84.63
2022-11-19T19:19:04.019Z,84.16
2022-11-19T19:21:31.258Z,82.35
2022-11-19T19:24:05.307Z,83.22
2022-11-19T19:26:32.384Z,83.08
2022-11-19T19:28:59.445Z,82.41
2022-11-19T19:31:26.519Z,81.68
2022-11-19T19:33:53.897Z,81.51
2022-11-19T19:36:24.741Z,83.44
2022-11-19T19:38:51.755Z,83.84
2022-11-19T19:41:22.251Z,84.18
2022-11-19T19:43:49.896Z,84.93
2022-11-19T19:46:19.345Z,84.96
2022-11-19T19:48:51.951Z,84.88
2022-11-19T19:51:21.601Z,83.95
2022-11-19T19:53:49.382Z,83.86
2022-11-19T19:56:26.414Z,84.97
2022-11-19T19:58:53.970Z,84.38
2022-11-19T20:01:24.663Z,83.18
2022-11-19T20:04:00.519Z,83.34
2022-11-19T20:06:30.232Z,83.50
2022-11-19T20:08:57.509Z,83.91
2022-11-19T20:11:26.356Z,83.91
2022-11-19T20:13:56.074Z,83.36
2022-11-19T20:16:31.871Z,83.09
2022-11-19T20:19:00.888Z,82.31
2022-11-19T20:21:31.821Z,82.18
2022-11-19T20:23:58.969Z,82.01
2022-11-19T20:26:29.339Z,81.76
2022-11-19T20:29:02.415Z,83.19
2022-11-19T20:31:30.707Z,81.65
2022-11-19T20:34:00.594Z,80.77
2022-11-19T20:36:30.757Z,80.40
2022-11-19T20:38:57.812Z,79.88
2022-11-19T20:41:44.772Z,79.77
2022-11-19T20:44:20.662Z,80.87
2022-11-19T20:46:59.054Z,79.01
2022-11-19T20:49:30.068Z,79.54
2022-11-19T20:51:57.401Z,79.96
2022-11-19T20:54:27.988Z,80.35
2022-11-19T20:56:56.632Z,80.45
2022-11-19T20:59:26.261Z,80.11
2022-11-19T21:01:55.278Z,81.45
2022-11-19T21:04:24.799Z,81.82
2022-11-19T21:06:53.997Z,81.06
2022-11-19T21:09:22.011Z,81.82
2022-11-19T21:11:49.354Z,81.31
2022-11-19T21:14:16.444Z,80.04
2022-11-19T21:16:46.347Z,81.03
2022-11-19T21:19:14.425Z,79.75
2022-11-19T21:21:41.939Z,79.72
2022-11-19T21:24:12.188Z,80.11
2022-11-19T21:26:39.813Z,81.12
2022-11-19T21:29:06.954Z,81.74
2022-11-19T21:31:42.743Z,81.30
2022-11-19T21:34:20.487Z,81.97
2022-11-19T21:36:48.645Z,81.70
2022-11-19T21:39:17.451Z,81.15
2022-11-19T21:41:45.198Z,81.09
2022-11-19T21:44:20.977Z,81.10
2022-11-19T21:46:50.980Z,81.26
2022-11-19T21:49:18.816Z,82.18
2022-11-19T21:51:46.170Z,81.85
2022-11-19T21:54:13.206Z,81.64
2022-11-19T21:56:40.372Z,82.67
2022-11-19T21:59:07.623Z,84.29
2022-11-19T22:01:37.188Z,83.67
2022-11-19T22:04:07.565Z,84.40
2022-11-19T22:06:34.837Z,84.41
2022-11-19T22:09:02.569Z,83.64
2022-11-19T22:11:34.097Z,83.19
2022-11-19T22:14:04.243Z,84.09
2022-11-19T22:16:34.928Z,82.96
2022-11-19T22:19:01.994Z,85.16
2022-11-19T22:21:29.503Z,85.16
2022-11-19T22:23:57.040Z,84.12
2022-11-19T22:26:26.627Z,84.53
2022-11-19T22:28:56.269Z,83.95
2022-11-19T22:31:24.551Z,83.61
2022-11-19T22:33:52.194Z,84.30
2022-11-19T22:36:21.619Z,84.43
2022-11-19T22:38:49.137Z,85.81
2022-11-19T22:41:19.652Z,85.08
2022-11-19T22:43:47.105Z,84.75
2022-11-19T22:46:14.875Z,85.01
2022-11-19T22:48:42.460Z,83.87
2022-11-19T22:51:16.840Z,85.11
2022-11-19T22:53:44.743Z,84.99
2022-11-19T22:56:15.251Z,83.84
2022-11-19T22:58:42.896Z,83.55
2022-11-19T23:01:21.699Z,85.08
2022-11-19T23:03:48.968Z,83.96
2022-11-19T23:06:17.007Z,83.30
2022-11-19T23:08:44.758Z,83.08
2022-11-19T23:11:16.772Z,83.16
2022-11-19T23:13:44.970Z,85.66
2022-11-19T23:16:15.953Z,85.59
2022-11-19T23:18:53.519Z,86.28
2022-11-19T23:21:28.077Z,86.00
2022-11-19T23:23:56.032Z,84.43
2022-11-19T23:26:26.607Z,85.16
2022-11-19T23:28:54.537Z,85.92
2022-11-19T23:31:31.493Z,86.99
2022-11-19T23:33:59.660Z,85.56
2022-11-19T23:36:30.684Z,84.17
2022-11-19T23:38:58.920Z,84.56
2022-11-19T23:41:26.768Z,85.00
2022-11-19T23:43:56.757Z,85.03
2022-11-19T23:46:30.230Z,84.70
2022-11-19T23:48:58.796Z,84.20
2022-11-19T23:51:38.341Z,85.14
2022-11-19T23:54:08.389Z,85.38
2022-11-19T23:56:36.357Z,84.67
2022-11-19T23:59:06.364Z,84.34
